Time,TemperatureF,DewpointF,PressureIn,WindDirection,WindDirectionDegrees,WindSpeedMPH,WindSpeedGustMPH,Humidity,HourlyPrecipIn,Conditions,Clouds,dailyrainin,SoftwareType,DateUTC
2013-06-27 00:01:00,82.2,81.6,30.52,ESE,112,0.0,0.0,98,0.00,RA,,0.00,WeatherDisplay:10.37,2013-06-27 04:01:00,
2013-06-27 00:02:00,82.2,81.6,30.52,ESE,112,0.0,0.0,98,0.00,RA,,0.00,WeatherDisplay:10.37,2013-06-27 04:02:00,
2013-06-27 00:07:00,82.0,81.4,30.52,ESE,112,0.0,0.0,98,0.00,RA,,0.00,WeatherDisplay:10.37,2013-06-27 04:07:00,
2013-06-27 00:12:00,82.0,81.4,30.52,ESE,112,0.0,0.0,98,0.00,CLR,,0.00,WeatherDisplay:10.37,2013-06-27 04:12:00,
2013-06-27 00:17:00,82.0,81.4,30.52,ESE,112,0.0,0.0,98,0.00,CLR,,0.00,WeatherDisplay:10.37,2013-06-27 04:17:00,
2013-06-27 00:22:00,82.0,81.4,30.36,ESE,112,0.0,0.0,98,0.00,CLR,,0.00,WeatherDisplay:10.37,2013-06-27 04:22:00,
2013-06-27 00:27:00,82.0,81.4,30.36,ESE,112,0.0,0.0,98,0.00,CLR,,0.00,WeatherDisplay:10.37,2013-06-27 04:27:00,
2013-06-27 00:32:00,82.0,81.4,30.08,ESE,112,0.0,0.0,98,0.00,CLR,,0.00,WeatherDisplay:10.37,2013-06-27 04:32:00,
2013-06-27 00:37:00,81.9,81.3,30.08,ESE,112,0.0,0.0,98,0.00,CLR,,0.00,WeatherDisplay:10.37,2013-06-27 04:37:00,
2013-06-27 00:42:00,81.9,81.3,30.08,ESE,112,0.0,0.0,98,0.00,CLR,,0.00,WeatherDisplay:10.37,2013-06-27 04:42:00,
2013-06-27 00:47:00,81.5,80.9,29.91,ESE,112,0.0,0.0,98,0.00,CLR,,0.00,WeatherDisplay:10.37,2013-06-27 04:47:00,
2013-06-27 00:52:00,81.5,80.9,29.91,ESE,112,0.0,0.0,98,0.00,CLR,,0.00,WeatherDisplay:10.37,2013-06-27 04:52:00,
2013-06-27 00:57:00,81.5,80.9,29.79,ESE,112,0.0,0.0,98,0.00,CLR,,0.00,WeatherDisplay:10.37,2013-06-27 04:57:00,
2013-06-27 01:02:00,81.5,80.9,29.79,ESE,112,0.0,0.0,98,0.00,CLR,,0.00,WeatherDisplay:10.37,2013-06-27 05:02:00,
2013-06-27 01:07:00,81.5,80.9,29.71,ESE,112,0.0,0.0,98,0.00,CLR,,0.00,WeatherDisplay:10.37,2013-06-27 05:07:00,
2013-06-27 01:12:00,81.5,80.9,29.71,ESE,112,0.0,0.0,98,0.00,CLR,,0.00,WeatherDisplay:10.37,2013-06-27 05:12:00,
2013-06-27 01:17:00,81.5,80.9,29.71,ESE,112,0.0,0.0,98,0.00,CLR,,0.00,WeatherDisplay:10.37,2013-06-27 05:17:00,
2013-06-27 01:22:00,81.3,80.7,29.66,ESE,112,0.0,0.0,98,0.00,CLR,,0.00,WeatherDisplay:10.37,2013-06-27 05:22:00,
2013-06-27 01:27:00,81.3,80.7,29.66,ESE,112,0.0,0.0,98,0.00,CLR,,0.00,WeatherDisplay:10.37,2013-06-27 05:27:00,
2013-06-27 01:32:00,81.3,80.7,29.85,ESE,112,0.0,0.0,98,0.00,CLR,,0.00,WeatherDisplay:10.37,2013-06-27 05:32:00,
2013-06-27 01:37:00,81.3,80.7,29.85,ESE,112,0.0,0.0,98,0.00,CLR,,0.00,WeatherDisplay:10.37,2013-06-27 05:37:00,
2013-06-27 01:42:00,81.1,80.5,29.85,ESE,112,0.0,0.0,98,0.00,CLR,,0.00,WeatherDisplay:10.37,2013-06-27 05:42:00,
2013-06-27 01:47:00,81.1,80.5,30.05,ESE,112,0.0,0.0,98,0.00,CLR,,0.00,WeatherDisplay:10.37,2013-06-27 05:47:00,
2013-06-27 01:52:00,81.1,80.5,30.05,ESE,112,0.0,0.0,98,0.00,CLR,,0.00,WeatherDisplay:10.37,2013-06-27 05:52:00,
2013-06-27 01:57:00,81.1,80.5,30.21,ESE,112,0.0,0.0,98,0.00,CLR,,0.00,WeatherDisplay:10.37,2013-06-27 05:57:00,
2013-06-27 02:02:00,81.1,80.5,30.21,ESE,112,0.0,0.0,98,0.00,CLR,,0.00,WeatherDisplay:10.37,2013-06-27 06:02:00,
2013-06-27 02:07:00,81.1,80.5,30.32,ESE,112,0.0,0.0,98,0.00,CLR,,0.00,WeatherDisplay:10.37,2013-06-27 06:07:00,
2013-06-27 02:12:00,81.1,80.5,30.32,ESE,112,0.0,0.0,98,0.00,CLR,,0.00,WeatherDisplay:10.37,2013-06-27 06:12:00,
2013-06-27 02:17:00,81.1,80.5,30.32,ESE,112,0.0,0.0,98,0.00,CLR,,0.00,WeatherDisplay:10.37,2013-06-27 06:17:00,
2013-06-27 02:22:00,81.1,80.5,30.39,ESE,112,0.0,0.0,98,0.00,CLR,,0.00,WeatherDisplay:10.37,2013-06-27 06:22:00,
2013-06-27 02:27:00,81.1,80.5,30.39,ESE,112,0.0,0.0,98,0.00,CLR,,0.00,WeatherDisplay:10.37,2013-06-27 06:27:00,
2013-06-27 02:32:00,81.1,80.5,30.44,ESE,112,0.0,0.0,98,0.00,CLR,,0.00,WeatherDisplay:10.37,2013-06-27 06:32:00,
2013-06-27 02:37:00,81.0,80.4,30.44,ESE,112,0.0,0.0,98,0.00,CLR,,0.00,WeatherDisplay:10.37,2013-06-27 06:37:00,
2013-06-27 02:42:00,81.0,80.4,30.44,ESE,112,0.0,0.0,98,0.00,CLR,,0.00,WeatherDisplay:10.37,2013-06-27 06:42:00,
2013-06-27 02:47:00,81.0,80.4,30.50,ESE,112,0.0,0.0,98,0.00,CLR,,0.00,WeatherDisplay:10.37,2013-06-27 06:47:00,
2013-06-27 02:52:00,80.8,80.2,30.50,ESE,112,0.0,0.0,98,0.00,CLR,,0.00,WeatherDisplay:10.37,2013-06-27 06:52:00,
2013-06-27 02:57:00,80.8,80.2,30.53,ESE,112,0.0,0.0,98,0.00,CLR,,0.00,WeatherDisplay:10.37,2013-06-27 06:57:00,
2013-06-27 03:02:00,80.6,80.0,30.53,ESE,112,0.0,0.0,98,0.00,CLR,,0.00,WeatherDisplay:10.37,2013-06-27 07:02:00,
2013-06-27 03:07:00,80.6,80.0,30.35,ESE,112,0.0,0.0,98,0.00,CLR,,0.00,WeatherDisplay:10.37,2013-06-27 07:07:00,
2013-06-27 03:12:00,80.4,79.8,30.35,ESE,112,0.0,0.0,98,0.00,CLR,,0.00,WeatherDisplay:10.37,2013-06-27 07:12:00,
2013-06-27 03:17:00,80.4,79.8,30.35,ESE,112,0.0,0.0,98,0.00,CLR,,0.00,WeatherDisplay:10.37,2013-06-27 07:17:00,
2013-06-27 03:22:00,80.4,79.8,30.08,ESE,112,0.0,0.0,98,0.00,CLR,,0.00,WeatherDisplay:10.37,2013-06-27 07:22:00,
2013-06-27 03:27:00,80.4,79.8,30.08,ESE,112,0.0,0.0,98,0.00,CLR,,0.00,WeatherDisplay:10.37,2013-06-27 07:27:00,
2013-06-27 03:32:00,80.4,79.8,29.92,ESE,112,0.0,0.0,98,0.00,CLR,,0.00,WeatherDisplay:10.37,2013-06-27 07:32:00,
2013-06-27 03:37:00,80.4,79.8,29.92,ESE,112,0.0,0.0,98,0.00,CLR,,0.00,WeatherDisplay:10.37,2013-06-27 07:37:00,
2013-06-27 03:42:00,80.1,79.5,29.80,ESE,112,0.0,0.0,98,0.00,CLR,,0.00,WeatherDisplay:10.37,2013-06-27 07:42:00,
2013-06-27 03:47:00,80.1,79.5,29.80,ESE,112,0.0,0.0,98,0.00,CLR,,0.00,WeatherDisplay:10.37,2013-06-27 07:47:00,
2013-06-27 03:52:00,79.9,79.3,29.80,ESE,112,0.0,0.0,98,0.00,CLR,,0.00,WeatherDisplay:10.37,2013-06-27 07:52:00,
2013-06-27 03:57:00,79.7,79.1,29.73,ESE,112,0.0,0.0,98,0.00,CLR,,0.00,WeatherDisplay:10.37,2013-06-27 07:57:00,
2013-06-27 04:02:00,79.7,79.1,29.73,ESE,112,0.0,0.0,98,0.00,CLR,,0.00,WeatherDisplay:10.37,2013-06-27 08:02:00,
2013-06-27 04:07:00,79.5,78.9,29.69,ESE,112,0.0,0.0,98,0.00,CLR,,0.00,WeatherDisplay:10.37,2013-06-27 08:07:00,
2013-06-27 04:12:00,79.5,78.9,29.69,ESE,112,0.0,0.0,98,0.00,CLR,,0.00,WeatherDisplay:10.37,2013-06-27 08:12:00,
2013-06-27 04:17:00,79.5,78.9,29.69,ESE,112,0.0,0.0,98,0.00,CLR,,0.00,WeatherDisplay:10.37,2013-06-27 08:17:00,
2013-06-27 04:22:00,79.3,78.7,29.66,ESE,112,0.0,0.0,98,0.00,CLR,,0.00,WeatherDisplay:10.37,2013-06-27 08:22:00,
2013-06-27 04:27:00,79.3,78.7,29.66,ESE,112,0.0,0.0,98,0.00,CLR,,0.00,WeatherDisplay:10.37,2013-06-27 08:27:00,
2013-06-27 04:32:00,79.2,78.6,29.81,ESE,112,0.0,0.0,98,0.00,CLR,,0.00,WeatherDisplay:10.37,2013-06-27 08:32:00,
2013-06-27 04:37:00,79.2,78.6,29.81,ESE,112,0.0,0.0,98,0.00,CLR,,0.00,WeatherDisplay:10.37,2013-06-27 08:37:00,
2013-06-27 04:42:00,79.0,78.4,29.81,ESE,112,0.0,0.0,98,0.00,CLR,,0.00,WeatherDisplay:10.37,2013-06-27 08:42:00,
2013-06-27 04:47:00,79.0,78.4,30.05,ESE,112,0.0,0.0,98,0.00,CLR,,0.00,WeatherDisplay:10.37,2013-06-27 08:47:00,
2013-06-27 04:52:00,79.2,78.6,30.05,ESE,112,0.0,0.0,98,0.00,CLR,,0.00,WeatherDisplay:10.37,2013-06-27 08:52:00,
2013-06-27 04:57:00,79.3,78.7,30.22,ESE,112,0.0,0.0,98,0.00,CLR,,0.00,WeatherDisplay:10.37,2013-06-27 08:57:00,
2013-06-27 05:02:00,79.3,78.7,30.22,ESE,112,0.0,0.0,98,0.00,CLR,,0.00,WeatherDisplay:10.37,2013-06-27 09:02:00,
2013-06-27 05:07:00,79.5,78.9,30.34,ESE,112,0.0,0.0,98,0.00,CLR,,0.00,WeatherDisplay:10.37,2013-06-27 09:07:00,
2013-06-27 05:12:00,79.5,78.9,30.34,ESE,112,0.0,0.0,98,0.00,CLR,,0.00,WeatherDisplay:10.37,2013-06-27 09:12:00,
2013-06-27 05:17:00,79.5,78.9,30.34,ESE,112,0.0,0.0,98,0.00,CLR,,0.00,WeatherDisplay:10.37,2013-06-27 09:17:00,
2013-06-27 05:22:00,79.5,78.9,30.43,ESE,112,0.0,0.0,98,0.00,CLR,,0.00,WeatherDisplay:10.37,2013-06-27 09:22:00,
2013-06-27 05:27:00,79.5,78.9,30.43,ESE,112,0.0,0.0,98,0.00,CLR,,0.00,WeatherDisplay:10.37,2013-06-27 09:27:00,
2013-06-27 05:32:00,79.3,78.7,30.49,ESE,112,0.0,0.0,98,0.00,CLR,,0.00,WeatherDisplay:10.37,2013-06-27 09:32:00,
2013-06-27 05:37:00,79.3,78.7,30.49,ESE,112,0.0,0.0,98,0.00,CLR,,0.00,WeatherDisplay:10.37,2013-06-27 09:37:00,
2013-06-27 05:42:00,79.3,78.7,30.50,ESE,112,0.0,0.0,98,0.00,CLR,,0.00,WeatherDisplay:10.37,2013-06-27 09:42:00,
2013-06-27 05:47:00,79.3,78.7,30.50,ESE,112,0.0,0.0,98,0.00,CLR,,0.00,WeatherDisplay:10.37,2013-06-27 09:47:00,
2013-06-27 05:52:00,79.3,78.7,30.50,ESE,112,0.0,0.0,98,0.00,CLR,,0.00,WeatherDisplay:10.37,2013-06-27 09:52:00,
2013-06-27 05:57:00,79.3,78.7,30.23,ESE,112,0.0,0.0,98,0.00,CLR,,0.00,WeatherDisplay:10.37,2013-06-27 09:57:00,
2013-06-27 06:02:00,79.2,78.6,30.23,ESE,112,0.0,0.0,98,0.00,CLR,,0.00,WeatherDisplay:10.37,2013-06-27 10:02:00,
2013-06-27 06:07:00,79.2,78.6,30.01,ESE,112,0.0,0.0,98,0.00,CLR,,0.00,WeatherDisplay:10.37,2013-06-27 10:07:00,
2013-06-27 06:12:00,79.2,78.6,30.01,ESE,112,0.0,0.0,98,0.00,CLR,,0.00,WeatherDisplay:10.37,2013-06-27 10:12:00,
2013-06-27 06:17:00,79.2,78.6,30.01,ESE,112,0.0,0.0,98,0.00,CLR,,0.00,WeatherDisplay:10.37,2013-06-27 10:17:00,
2013-06-27 06:22:00,79.2,78.6,29.88,ESE,112,0.0,0.0,98,0.00,CLR,,0.00,WeatherDisplay:10.37,2013-06-27 10:22:00,
2013-06-27 06:27:00,79.0,78.4,29.88,ESE,112,0.0,0.0,98,0.00,CLR,,0.00,WeatherDisplay:10.37,2013-06-27 10:27:00,
2013-06-27 06:32:00,79.0,78.4,29.79,ESE,112,0.0,0.0,98,0.00,CLR,,0.00,WeatherDisplay:10.37,2013-06-27 10:32:00,
2013-06-27 06:37:00,79.0,78.4,29.79,ESE,112,0.0,0.0,98,0.00,CLR,,0.00,WeatherDisplay:10.37,2013-06-27 10:37:00,
2013-06-27 06:42:00,79.0,78.4,29.70,ESE,112,0.0,0.0,98,0.00,CLR,,0.00,WeatherDisplay:10.37,2013-06-27 10:42:00,
2013-06-27 06:47:00,79.2,78.6,29.70,ESE,112,0.0,0.0,98,0.00,CLR,,0.00,WeatherDisplay:10.37,2013-06-27 10:47:00,
2013-06-27 06:52:00,79.2,78.6,29.70,ESE,112,0.0,0.0,98,0.00,CLR,,0.00,WeatherDisplay:10.37,2013-06-27 10:52:00,
2013-06-27 06:57:00,79.2,78.6,29.62,ESE,112,0.0,0.0,98,0.00,CLR,,0.00,WeatherDisplay:10.37,2013-06-27 10:57:00,
2013-06-27 07:02:00,79.3,78.7,29.62,ESE,112,0.0,0.0,98,0.00,CLR,,0.00,WeatherDisplay:10.37,2013-06-27 11:02:00,
2013-06-27 07:07:00,79.5,78.9,29.86,ESE,112,0.0,0.0,98,0.00,CLR,,0.00,WeatherDisplay:10.37,2013-06-27 11:07:00,
2013-06-27 07:12:00,80.1,79.5,29.86,ESE,112,0.0,0.0,98,0.00,CLR,,0.00,WeatherDisplay:10.37,2013-06-27 11:12:00,
2013-06-27 07:17:00,80.6,80.0,29.86,ESE,112,0.0,0.0,98,0.00,CLR,,0.00,WeatherDisplay:10.37,2013-06-27 11:17:00,
2013-06-27 07:22:00,81.0,80.4,30.06,ESE,112,0.0,0.0,98,0.00,CLR,,0.00,WeatherDisplay:10.37,2013-06-27 11:22:00,
2013-06-27 07:27:00,81.3,80.7,30.06,ESE,112,0.0,0.0,98,0.00,CLR,,0.00,WeatherDisplay:10.37,2013-06-27 11:27:00,
2013-06-27 07:32:00,81.5,80.9,30.11,ESE,112,0.0,0.0,98,0.00,CLR,,0.00,WeatherDisplay:10.37,2013-06-27 11:32:00,
2013-06-27 07:37:00,81.7,81.1,30.11,ESE,112,0.0,0.0,98,0.00,CLR,,0.00,WeatherDisplay:10.37,2013-06-27 11:37:00,
2013-06-27 07:42:00,82.2,81.6,30.11,ESE,112,0.0,0.0,98,0.00,CLR,,0.00,WeatherDisplay:10.37,2013-06-27 11:42:00,
2013-06-27 07:47:00,82.6,82.0,29.87,ESE,112,0.0,0.0,98,0.00,CLR,,0.00,WeatherDisplay:10.37,2013-06-27 11:47:00,
2013-06-27 07:52:00,82.6,82.0,29.87,ESE,112,0.0,0.0,98,0.00,CLR,,0.00,WeatherDisplay:10.37,2013-06-27 11:52:00,
2013-06-27 07:57:00,82.9,82.3,29.72,ESE,112,0.0,0.0,98,0.00,CLR,,0.00,WeatherDisplay:10.37,2013-06-27 11:57:00,
2013-06-27 08:02:00,83.3,82.7,29.72,ESE,112,0.0,0.0,98,0.00,CLR,,0.00,WeatherDisplay:10.37,2013-06-27 12:02:00,
2013-06-27 08:07:00,83.7,83.1,29.75,ESE,112,0.0,0.0,98,0.00,CLR,,0.00,WeatherDisplay:10.37,2013-06-27 12:07:00,
2013-06-27 08:12:00,83.8,83.2,29.75,ESE,112,0.0,0.0,98,0.00,CLR,,0.00,WeatherDisplay:10.37,2013-06-27 12:12:00,
2013-06-27 08:17:00,84.0,83.4,29.75,ESE,112,0.0,0.0,98,0.00,CLR,,0.00,WeatherDisplay:10.37,2013-06-27 12:17:00,
2013-06-27 08:22:00,84.4,83.8,30.01,ESE,112,0.0,0.0,98,0.00,CLR,,0.00,WeatherDisplay:10.37,2013-06-27 12:22:00,
2013-06-27 08:27:00,84.6,84.0,30.01,ESE,112,0.0,0.0,98,0.00,CLR,,0.00,WeatherDisplay:10.37,2013-06-27 12:27:00,
2013-06-27 08:32:00,84.7,84.1,30.20,ESE,112,0.0,0.0,98,0.00,CLR,,0.00,WeatherDisplay:10.37,2013-06-27 12:32:00,
2013-06-27 08:37:00,84.9,84.3,30.20,ESE,112,0.0,0.0,98,0.00,CLR,,0.00,WeatherDisplay:10.37,2013-06-27 12:37:00,
2013-06-27 08:42:00,85.3,84.7,30.32,ESE,112,0.0,0.0,98,0.00,CLR,,0.00,WeatherDisplay:10.37,2013-06-27 12:42:00,
2013-06-27 08:47:00,85.5,84.9,30.32,ESE,112,0.0,0.0,98,0.00,CLR,,0.00,WeatherDisplay:10.37,2013-06-27 12:47:00,
2013-06-27 08:52:00,85.6,85.0,30.32,ESE,112,0.0,0.0,98,0.00,CLR,,0.00,WeatherDisplay:10.37,2013-06-27 12:52:00,
2013-06-27 08:57:00,85.8,85.2,30.39,ESE,112,0.0,0.0,98,0.00,CLR,,0.00,WeatherDisplay:10.37,2013-06-27 12:57:00,
2013-06-27 09:02:00,85.8,85.2,30.39,ESE,112,0.0,0.0,98,0.00,CLR,,0.00,WeatherDisplay:10.37,2013-06-27 13:02:00,
2013-06-27 09:07:00,86.4,85.8,30.44,ESE,112,0.0,0.0,98,0.00,CLR,,0.00,WeatherDisplay:10.37,2013-06-27 13:07:00,
2013-06-27 09:12:00,87.3,86.7,30.44,ESE,112,0.0,0.0,98,0.00,CLR,,0.00,WeatherDisplay:10.37,2013-06-27 13:12:00,
2013-06-27 09:17:00,88.0,87.4,30.44,ESE,112,0.0,0.0,98,0.00,CLR,,0.00,WeatherDisplay:10.37,2013-06-27 13:17:00,
2013-06-27 09:22:00,87.3,86.7,30.42,ESE,112,0.0,0.0,98,0.00,CLR,,0.00,WeatherDisplay:10.37,2013-06-27 13:22:00,
2013-06-27 09:27:00,87.6,87.0,30.42,ESE,112,0.0,0.0,98,0.00,CLR,,0.00,WeatherDisplay:10.37,2013-06-27 13:27:00,
2013-06-27 09:32:00,88.2,87.6,30.09,ESE,112,0.0,0.0,98,0.00,CLR,,0.00,WeatherDisplay:10.37,2013-06-27 13:32:00,
2013-06-27 09:37:00,88.9,88.3,30.09,ESE,112,0.0,0.0,98,0.00,CLR,,0.00,WeatherDisplay:10.37,2013-06-27 13:37:00,
2013-06-27 09:42:00,88.7,88.1,29.86,ESE,112,0.0,0.0,98,0.00,CLR,,0.00,WeatherDisplay:10.37,2013-06-27 13:42:00,
2013-06-27 09:47:00,88.3,87.7,29.86,North,360,0.0,0.0,98,0.00,CLR,,0.00,WeatherDisplay:10.37,2013-06-27 13:47:00,
2013-06-27 09:52:00,89.4,88.8,29.86,SE,135,0.0,0.0,98,0.00,CLR,,0.00,WeatherDisplay:10.37,2013-06-27 13:52:00,
2013-06-27 09:57:00,88.3,87.7,29.72,ESE,112,0.0,0.0,98,0.00,CLR,,0.00,WeatherDisplay:10.37,2013-06-27 13:57:00,
2013-06-27 10:02:00,86.9,86.3,29.72,ESE,112,0.0,0.0,98,0.00,CLR,,0.00,WeatherDisplay:10.37,2013-06-27 14:02:00,
2013-06-27 10:07:00,86.4,85.8,29.63,ESE,112,0.0,0.0,98,0.00,CLR,,0.00,WeatherDisplay:10.37,2013-06-27 14:07:00,
2013-06-27 10:12:00,87.1,86.5,29.63,ESE,112,0.0,0.0,98,0.00,CLR,,0.00,WeatherDisplay:10.37,2013-06-27 14:12:00,
2013-06-27 10:17:00,87.6,87.0,29.63,ESE,112,0.0,0.0,98,0.00,CLR,,0.00,WeatherDisplay:10.37,2013-06-27 14:17:00,
2013-06-27 10:22:00,86.4,85.8,29.73,ESE,112,0.0,0.0,98,0.00,CLR,,0.00,WeatherDisplay:10.37,2013-06-27 14:22:00,
2013-06-27 10:27:00,86.2,85.6,29.73,ESE,112,0.0,0.0,98,0.00,CLR,,0.00,WeatherDisplay:10.37,2013-06-27 14:27:00,
2013-06-27 10:32:00,84.9,84.3,30.00,ESE,112,0.0,0.0,98,0.00,CLR,,0.00,WeatherDisplay:10.37,2013-06-27 14:32:00,
2013-06-27 10:37:00,85.5,84.9,30.00,ESE,112,0.0,0.0,98,0.00,CLR,,0.00,WeatherDisplay:10.37,2013-06-27 14:37:00,
2013-06-27 10:42:00,85.5,84.9,30.19,ESE,112,0.0,0.0,98,0.00,CLR,,0.00,WeatherDisplay:10.37,2013-06-27 14:42:00,
2013-06-27 10:47:00,85.6,85.0,30.19,ESE,112,0.0,0.0,98,0.00,CLR,,0.00,WeatherDisplay:10.37,2013-06-27 14:47:00,
2013-06-27 10:52:00,84.2,83.6,30.19,ESE,112,0.0,0.0,98,0.00,CLR,,0.00,WeatherDisplay:10.37,2013-06-27 14:52:00,
2013-06-27 10:57:00,84.0,83.4,30.31,ESE,112,0.0,0.0,98,0.00,CLR,,0.00,WeatherDisplay:10.37,2013-06-27 14:57:00,
2013-06-27 11:02:00,84.6,84.0,30.31,ESE,112,0.0,0.0,98,0.00,CLR,,0.00,WeatherDisplay:10.37,2013-06-27 15:02:00,
2013-06-27 11:07:00,84.9,84.3,30.38,West,270,1.1,1.1,98,0.00,CLR,,0.00,WeatherDisplay:10.37,2013-06-27 15:07:00,
2013-06-27 11:12:00,84.6,84.0,30.38,West,270,1.1,0.0,98,0.00,CLR,,0.00,WeatherDisplay:10.37,2013-06-27 15:12:00,
2013-06-27 11:17:00,83.5,82.9,30.38,SSW,202,0.0,0.0,98,0.00,CLR,,0.00,WeatherDisplay:10.37,2013-06-27 15:17:00,
2013-06-27 11:22:00,83.1,82.5,30.43,SSW,202,0.0,0.0,98,0.00,CLR,,0.00,WeatherDisplay:10.37,2013-06-27 15:22:00,
2013-06-27 11:24:00,82.9,82.3,30.43,SSW,202,0.0,0.0,98,0.00,CLR,,0.00,WeatherDisplay:10.37,2013-06-27 15:24:00,
2013-06-27 11:29:00,82.4,81.8,30.43,WSW,248,0.0,0.0,98,0.01,RA,,0.01,WeatherDisplay:10.37,2013-06-27 15:29:00,
2013-06-27 11:34:00,80.2,79.6,30.49,WSW,248,0.0,0.0,98,0.01,RA,,0.01,WeatherDisplay:10.37,2013-06-27 15:34:00,
2013-06-27 11:39:00,79.2,78.6,30.49,WSW,248,0.0,0.0,98,0.01,CLR,,0.01,WeatherDisplay:10.37,2013-06-27 15:39:00,
2013-06-27 11:44:00,79.7,79.1,30.27,WSW,248,0.0,0.0,98,0.01,CLR,,0.01,WeatherDisplay:10.37,2013-06-27 15:44:00,
2013-06-27 11:49:00,80.2,79.6,30.27,WSW,248,0.0,0.0,98,0.01,CLR,,0.01,WeatherDisplay:10.37,2013-06-27 15:49:00,
2013-06-27 11:54:00,80.2,79.6,30.01,WSW,248,0.0,0.0,98,0.01,CLR,,0.01,WeatherDisplay:10.37,2013-06-27 15:54:00,
2013-06-27 11:59:00,80.6,80.0,30.01,WSW,248,0.0,0.0,98,0.01,CLR,,0.01,WeatherDisplay:10.37,2013-06-27 15:59:00,
2013-06-27 12:04:00,81.3,80.7,30.01,WSW,248,0.0,0.0,98,0.01,CLR,,0.01,WeatherDisplay:10.37,2013-06-27 16:04:00,
2013-06-27 12:09:00,81.9,81.3,29.84,SSE,158,0.0,0.0,98,0.01,CLR,,0.01,WeatherDisplay:10.37,2013-06-27 16:09:00,
2013-06-27 12:14:00,81.5,80.9,29.84,ESE,112,0.0,0.0,98,0.01,CLR,,0.01,WeatherDisplay:10.37,2013-06-27 16:14:00,
2013-06-27 12:19:00,82.8,82.2,29.75,ESE,112,0.0,0.0,98,0.01,CLR,,0.01,WeatherDisplay:10.37,2013-06-27 16:19:00,
2013-06-27 12:24:00,83.3,82.7,29.75,ESE,112,0.0,0.0,98,0.01,CLR,,0.01,WeatherDisplay:10.37,2013-06-27 16:24:00,
2013-06-27 12:29:00,83.3,82.7,29.75,ESE,112,0.0,0.0,98,0.00,CLR,,0.01,WeatherDisplay:10.37,2013-06-27 16:29:00,
2013-06-27 12:34:00,83.1,82.5,29.68,ESE,112,0.0,0.0,98,0.00,CLR,,0.01,WeatherDisplay:10.37,2013-06-27 16:34:00,
2013-06-27 12:39:00,83.5,82.9,29.68,ESE,112,0.0,0.0,98,0.00,CLR,,0.01,WeatherDisplay:10.37,2013-06-27 16:39:00,
2013-06-27 12:44:00,83.5,82.9,29.92,ESE,112,0.0,0.0,98,0.00,CLR,,0.01,WeatherDisplay:10.37,2013-06-27 16:44:00,
2013-06-27 12:49:00,83.3,82.7,29.92,ESE,112,0.0,0.0,98,0.00,CLR,,0.01,WeatherDisplay:10.37,2013-06-27 16:49:00,
2013-06-27 12:54:00,83.3,82.7,29.92,ESE,112,0.0,0.0,98,0.00,CLR,,0.01,WeatherDisplay:10.37,2013-06-27 16:54:00,
2013-06-27 12:59:00,83.3,82.7,30.16,ESE,112,0.0,0.0,98,0.00,CLR,,0.01,WeatherDisplay:10.37,2013-06-27 16:59:00,
2013-06-27 13:04:00,84.0,83.4,30.16,ESE,112,0.0,0.0,98,0.00,CLR,,0.01,WeatherDisplay:10.37,2013-06-27 17:04:00,
2013-06-27 13:09:00,84.2,83.6,30.28,ESE,112,0.0,0.0,98,0.00,CLR,,0.01,WeatherDisplay:10.37,2013-06-27 17:09:00,
2013-06-27 13:14:00,84.9,84.3,30.28,ESE,112,0.0,0.0,98,0.00,CLR,,0.01,WeatherDisplay:10.37,2013-06-27 17:14:00,
2013-06-27 13:19:00,85.3,84.7,30.34,ESE,112,0.0,0.0,98,0.00,CLR,,0.01,WeatherDisplay:10.37,2013-06-27 17:19:00,
2013-06-27 13:24:00,84.9,84.3,30.34,ESE,112,0.0,0.0,98,0.00,CLR,,0.01,WeatherDisplay:10.37,2013-06-27 17:24:00,
2013-06-27 13:29:00,83.5,82.9,30.34,ESE,112,0.0,0.0,98,0.00,CLR,,0.01,WeatherDisplay:10.37,2013-06-27 17:29:00,
2013-06-27 13:34:00,84.4,83.8,30.40,ESE,112,0.0,0.0,98,0.00,CLR,,0.01,WeatherDisplay:10.37,2013-06-27 17:34:00,
2013-06-27 13:39:00,84.2,83.6,30.40,ESE,112,0.0,0.0,98,0.00,CLR,,0.01,WeatherDisplay:10.37,2013-06-27 17:39:00,
2013-06-27 13:44:00,86.0,85.4,30.35,North,360,1.1,0.0,98,0.00,CLR,,0.01,WeatherDisplay:10.37,2013-06-27 17:44:00,
2013-06-27 13:49:00,87.6,87.0,30.35,SSE,158,0.0,0.0,98,0.00,CLR,,0.01,WeatherDisplay:10.37,2013-06-27 17:49:00,
2013-06-27 13:54:00,88.7,88.1,30.35,NW,315,0.0,0.0,98,0.00,CLR,,0.01,WeatherDisplay:10.37,2013-06-27 17:54:00,
2013-06-27 13:59:00,89.8,89.2,30.01,ESE,112,1.7,1.7,98,0.00,CLR,,0.01,WeatherDisplay:10.37,2013-06-27 17:59:00,
2013-06-27 14:04:00,88.3,87.7,30.01,North,360,0.0,0.0,98,0.00,CLR,,0.01,WeatherDisplay:10.37,2013-06-27 18:04:00,
2013-06-27 14:09:00,88.0,87.4,29.80,ESE,112,0.0,0.0,98,0.00,CLR,,0.01,WeatherDisplay:10.37,2013-06-27 18:09:00,
2013-06-27 14:14:00,90.0,89.4,29.80,North,360,0.0,0.0,98,0.00,CLR,,0.01,WeatherDisplay:10.37,2013-06-27 18:14:00,
2013-06-27 14:19:00,89.8,89.2,29.65,SSE,158,0.0,0.0,98,0.00,CLR,,0.01,WeatherDisplay:10.37,2013-06-27 18:19:00,
2013-06-27 14:24:00,89.8,89.2,29.65,SSE,158,0.0,0.0,98,0.00,CLR,,0.01,WeatherDisplay:10.37,2013-06-27 18:24:00,
2013-06-27 14:29:00,88.5,87.9,29.65,SE,135,0.0,0.0,98,0.00,CLR,,0.01,WeatherDisplay:10.37,2013-06-27 18:29:00,
2013-06-27 14:34:00,90.9,90.3,29.67,ENE,68,0.0,0.0,98,0.00,CLR,,0.01,WeatherDisplay:10.37,2013-06-27 18:34:00,
2013-06-27 14:39:00,91.8,91.2,29.67,ESE,112,0.0,0.0,98,0.00,CLR,,0.01,WeatherDisplay:10.37,2013-06-27 18:39:00,
2013-06-27 14:44:00,89.4,88.8,29.86,ESE,112,0.0,0.0,98,0.00,CLR,,0.01,WeatherDisplay:10.37,2013-06-27 18:44:00,
2013-06-27 14:49:00,90.5,89.9,29.86,East,90,4.6,4.6,98,0.00,CLR,,0.01,WeatherDisplay:10.37,2013-06-27 18:49:00,
2013-06-27 14:54:00,88.9,88.3,30.00,SSE,158,2.7,2.7,98,0.00,CLR,,0.01,WeatherDisplay:10.37,2013-06-27 18:54:00,
2013-06-27 14:59:00,88.5,87.9,30.00,ESE,112,0.0,0.0,98,0.00,CLR,,0.01,WeatherDisplay:10.37,2013-06-27 18:59:00,
2013-06-27 15:04:00,88.0,87.4,30.00,SE,135,0.0,0.0,98,0.00,CLR,,0.01,WeatherDisplay:10.37,2013-06-27 19:04:00,
2013-06-27 15:09:00,87.4,86.8,30.11,SSE,158,0.0,0.0,98,0.00,CLR,,0.01,WeatherDisplay:10.37,2013-06-27 19:09:00,
2013-06-27 15:14:00,87.8,87.2,30.11,SE,135,0.0,0.0,98,0.00,CLR,,0.01,WeatherDisplay:10.37,2013-06-27 19:14:00,
2013-06-27 15:19:00,87.4,86.8,30.17,SSE,158,2.3,2.3,98,0.00,CLR,,0.01,WeatherDisplay:10.37,2013-06-27 19:19:00,
2013-06-27 15:24:00,87.1,86.5,30.17,SE,135,0.0,0.0,98,0.00,CLR,,0.01,WeatherDisplay:10.37,2013-06-27 19:24:00,
2013-06-27 15:29:00,87.6,87.0,30.17,SSE,158,0.0,0.0,98,0.00,CLR,,0.01,WeatherDisplay:10.37,2013-06-27 19:29:00,
2013-06-27 15:34:00,87.8,87.2,30.20,ESE,112,0.0,0.0,98,0.00,CLR,,0.01,WeatherDisplay:10.37,2013-06-27 19:34:00,
2013-06-27 15:39:00,87.4,86.8,30.20,ESE,112,0.0,0.0,98,0.00,CLR,,0.01,WeatherDisplay:10.37,2013-06-27 19:39:00,
2013-06-27 15:44:00,87.4,86.8,30.25,ESE,112,0.0,0.0,98,0.00,CLR,,0.01,WeatherDisplay:10.37,2013-06-27 19:44:00,
2013-06-27 15:49:00,87.8,87.2,30.25,ESE,112,0.0,0.3,98,0.00,CLR,,0.01,WeatherDisplay:10.37,2013-06-27 19:49:00,
2013-06-27 15:54:00,86.9,86.3,30.26,South,180,1.1,1.1,98,0.00,CLR,,0.01,WeatherDisplay:10.37,2013-06-27 19:54:00,
2013-06-27 15:59:00,86.4,85.8,30.26,SE,135,0.0,0.0,98,0.00,CLR,,0.01,WeatherDisplay:10.37,2013-06-27 19:59:00,
2013-06-27 16:04:00,86.7,86.1,30.26,SSE,158,1.1,1.1,98,0.00,CLR,,0.01,WeatherDisplay:10.37,2013-06-27 20:04:00,
2013-06-27 16:09:00,86.7,86.1,30.28,ESE,112,2.3,2.3,98,0.00,CLR,,0.01,WeatherDisplay:10.37,2013-06-27 20:09:00,
2013-06-27 16:14:00,86.9,86.3,30.28,ESE,112,0.0,0.0,98,0.00,CLR,,0.01,WeatherDisplay:10.37,2013-06-27 20:14:00,
2013-06-27 16:19:00,86.7,86.1,30.32,SE,135,4.6,4.6,98,0.00,CLR,,0.01,WeatherDisplay:10.37,2013-06-27 20:19:00,
2013-06-27 16:24:00,87.1,86.5,30.32,SSE,158,4.2,4.2,98,0.00,CLR,,0.01,WeatherDisplay:10.37,2013-06-27 20:24:00,
2013-06-27 16:30:00,87.4,86.8,30.32,ESE,112,1.1,1.1,98,0.00,CLR,,0.01,WeatherDisplay:10.37,2013-06-27 20:30:00,
2013-06-27 16:35:00,87.4,86.8,30.31,ESE,112,5.8,5.8,98,0.00,CLR,,0.01,WeatherDisplay:10.37,2013-06-27 20:35:00,
2013-06-27 16:40:00,87.1,86.5,30.31,ESE,112,0.0,0.0,98,0.00,CLR,,0.01,WeatherDisplay:10.37,2013-06-27 20:40:00,
2013-06-27 16:45:00,86.7,86.1,30.34,ESE,112,0.0,0.0,98,0.00,CLR,,0.01,WeatherDisplay:10.37,2013-06-27 20:45:00,
2013-06-27 16:50:00,86.7,86.1,30.34,ESE,112,1.1,1.1,98,0.00,CLR,,0.01,WeatherDisplay:10.37,2013-06-27 20:50:00,
2013-06-27 16:55:00,86.4,85.8,30.39,ESE,112,0.0,0.0,98,0.00,CLR,,0.01,WeatherDisplay:10.37,2013-06-27 20:55:00,
2013-06-27 17:00:00,86.4,85.8,30.39,ESE,112,2.3,2.3,98,0.00,CLR,,0.01,WeatherDisplay:10.37,2013-06-27 21:00:00,
2013-06-27 17:05:00,86.5,85.9,30.39,ESE,112,0.0,0.0,98,0.00,CLR,,0.01,WeatherDisplay:10.37,2013-06-27 21:05:00,
2013-06-27 17:10:00,86.7,86.1,30.43,SE,135,0.0,0.0,98,0.00,CLR,,0.01,WeatherDisplay:10.37,2013-06-27 21:10:00,
2013-06-27 17:16:00,86.4,85.8,30.43,ESE,112,0.0,0.0,98,0.00,CLR,,0.01,WeatherDisplay:10.37,2013-06-27 21:16:00,
2013-06-27 17:21:00,86.5,85.9,30.41,SE,135,2.3,2.3,98,0.00,CLR,,0.01,WeatherDisplay:10.37,2013-06-27 21:21:00,
2013-06-27 17:26:00,86.5,85.9,30.41,ESE,112,0.0,0.0,98,0.00,CLR,,0.01,WeatherDisplay:10.37,2013-06-27 21:26:00,
2013-06-27 17:32:00,86.4,85.8,30.09,ESE,112,0.0,0.0,98,0.00,CLR,,0.01,WeatherDisplay:10.37,2013-06-27 21:32:00,
2013-06-27 17:37:00,86.0,85.4,30.09,ESE,112,0.0,0.0,98,0.00,CLR,,0.01,WeatherDisplay:10.37,2013-06-27 21:37:00,
2013-06-27 17:42:00,86.0,85.4,30.09,ESE,112,0.0,0.0,98,0.00,CLR,,0.01,WeatherDisplay:10.37,2013-06-27 21:42:00,
2013-06-27 17:47:00,86.0,85.4,29.88,ESE,112,0.0,0.0,98,0.00,CLR,,0.01,WeatherDisplay:10.37,2013-06-27 21:47:00,
2013-06-27 17:52:00,86.0,85.4,29.88,ESE,112,0.0,0.0,98,0.00,CLR,,0.01,WeatherDisplay:10.37,2013-06-27 21:52:00,
2013-06-27 17:58:00,85.8,85.2,29.75,ESE,112,0.0,0.0,98,0.00,CLR,,0.01,WeatherDisplay:10.37,2013-06-27 21:58:00,
2013-06-27 18:03:00,85.5,84.9,29.75,ESE,112,0.0,0.0,98,0.00,CLR,,0.01,WeatherDisplay:10.37,2013-06-27 22:03:00,
2013-06-27 18:08:00,85.6,85.0,29.66,ESE,112,0.0,0.0,98,0.00,CLR,,0.01,WeatherDisplay:10.37,2013-06-27 22:08:00,
2013-06-27 18:14:00,85.3,84.7,29.66,ESE,112,0.0,0.0,98,0.00,CLR,,0.01,WeatherDisplay:10.37,2013-06-27 22:14:00,
2013-06-27 18:19:00,84.9,84.3,29.80,ESE,112,0.0,0.0,98,0.00,CLR,,0.01,WeatherDisplay:10.37,2013-06-27 22:19:00,
2013-06-27 18:24:00,84.9,84.3,29.80,ESE,112,0.0,0.0,98,0.00,CLR,,0.01,WeatherDisplay:10.37,2013-06-27 22:24:00,
2013-06-27 18:29:00,84.9,84.3,29.80,ESE,112,0.0,0.0,98,0.00,CLR,,0.01,WeatherDisplay:10.37,2013-06-27 22:29:00,
2013-06-27 18:35:00,84.6,84.0,30.02,ESE,112,0.0,0.0,98,0.00,CLR,,0.01,WeatherDisplay:10.37,2013-06-27 22:35:00,
2013-06-27 18:40:00,84.6,84.0,30.02,ESE,112,0.0,0.0,98,0.00,CLR,,0.01,WeatherDisplay:10.37,2013-06-27 22:40:00,
2013-06-27 18:45:00,84.4,83.8,30.16,ESE,112,0.0,0.0,98,0.00,CLR,,0.01,WeatherDisplay:10.37,2013-06-27 22:45:00,
2013-06-27 18:52:00,84.4,83.8,30.16,ESE,112,0.0,0.0,98,0.00,CLR,,0.01,WeatherDisplay:10.37,2013-06-27 22:52:00,
2013-06-27 18:57:00,84.4,83.8,30.26,ESE,112,0.0,0.0,98,0.00,CLR,,0.01,WeatherDisplay:10.37,2013-06-27 22:57:00,
2013-06-27 19:02:00,84.4,83.8,30.26,ESE,112,0.0,0.0,98,0.00,CLR,,0.01,WeatherDisplay:10.37,2013-06-27 23:02:00,
2013-06-27 19:07:00,84.4,83.8,30.34,ESE,112,0.0,0.0,98,0.00,CLR,,0.01,WeatherDisplay:10.37,2013-06-27 23:07:00,
2013-06-27 19:12:00,84.2,83.6,30.34,ESE,112,0.0,0.0,98,0.00,CLR,,0.01,WeatherDisplay:10.37,2013-06-27 23:12:00,
2013-06-27 19:17:00,84.0,83.4,30.34,ESE,112,0.0,0.0,98,0.00,CLR,,0.01,WeatherDisplay:10.37,2013-06-27 23:17:00,
2013-06-27 19:23:00,84.0,83.4,30.36,SSE,158,1.1,0.0,98,0.00,CLR,,0.01,WeatherDisplay:10.37,2013-06-27 23:23:00,
2013-06-27 19:28:00,84.0,83.4,30.36,ESE,112,0.0,0.0,98,0.00,CLR,,0.01,WeatherDisplay:10.37,2013-06-27 23:28:00,
2013-06-27 19:33:00,83.7,83.1,30.37,ESE,112,0.0,0.0,98,0.00,CLR,,0.01,WeatherDisplay:10.37,2013-06-27 23:33:00,
2013-06-27 19:38:00,83.7,83.1,30.37,ESE,112,0.0,0.0,98,0.00,CLR,,0.01,WeatherDisplay:10.37,2013-06-27 23:38:00,
2013-06-27 19:43:00,83.7,83.1,30.38,ESE,112,0.0,0.0,98,0.00,CLR,,0.01,WeatherDisplay:10.37,2013-06-27 23:43:00,
2013-06-27 19:48:00,83.5,82.9,30.38,ESE,112,0.0,0.0,98,0.00,CLR,,0.01,WeatherDisplay:10.37,2013-06-27 23:48:00,
2013-06-27 19:53:00,83.5,82.9,30.38,ESE,112,0.0,0.0,98,0.00,CLR,,0.01,WeatherDisplay:10.37,2013-06-27 23:53:00,
2013-06-27 19:58:00,83.3,82.7,30.39,ESE,112,0.0,0.0,98,0.00,CLR,,0.01,WeatherDisplay:10.37,2013-06-27 23:58:00,
2013-06-27 20:04:00,83.1,82.5,30.39,ESE,112,0.0,0.0,98,0.00,CLR,,0.01,WeatherDisplay:10.37,2013-06-28 00:04:00,
2013-06-27 20:09:00,83.1,82.5,30.38,ESE,112,0.0,0.0,98,0.00,CLR,,0.01,WeatherDisplay:10.37,2013-06-28 00:09:00,
2013-06-27 20:14:00,82.8,82.2,30.38,ESE,112,0.0,0.0,98,0.00,CLR,,0.01,WeatherDisplay:10.37,2013-06-28 00:14:00,
2013-06-27 20:19:00,82.8,82.2,30.33,ESE,112,0.0,0.0,98,0.00,CLR,,0.01,WeatherDisplay:10.37,2013-06-28 00:19:00,
2013-06-27 20:24:00,82.6,82.0,30.33,ESE,112,0.0,0.0,98,0.00,CLR,,0.01,WeatherDisplay:10.37,2013-06-28 00:24:00,
2013-06-27 20:29:00,82.6,82.0,30.27,ESE,112,0.0,0.0,98,0.00,CLR,,0.01,WeatherDisplay:10.37,2013-06-28 00:29:00,
2013-06-27 20:34:00,82.4,81.8,30.27,ESE,112,0.0,0.0,98,0.00,CLR,,0.01,WeatherDisplay:10.37,2013-06-28 00:34:00,
2013-06-27 20:40:00,82.4,81.8,30.27,ESE,112,0.0,0.0,98,0.00,CLR,,0.01,WeatherDisplay:10.37,2013-06-28 00:40:00,
2013-06-27 20:45:00,82.4,81.8,30.24,ESE,112,0.0,0.0,98,0.00,CLR,,0.01,WeatherDisplay:10.37,2013-06-28 00:45:00,
2013-06-27 20:50:00,82.2,81.6,30.24,ESE,112,0.0,0.0,98,0.00,CLR,,0.01,WeatherDisplay:10.37,2013-06-28 00:50:00,
2013-06-27 20:55:00,82.2,81.6,30.23,ESE,112,0.0,0.0,98,0.00,CLR,,0.01,WeatherDisplay:10.37,2013-06-28 00:55:00,
2013-06-27 21:00:00,82.2,81.6,30.23,ESE,112,0.0,0.0,98,0.00,CLR,,0.01,WeatherDisplay:10.37,2013-06-28 01:00:00,
2013-06-27 21:05:00,82.2,81.6,30.23,ESE,112,0.0,0.0,98,0.00,CLR,,0.01,WeatherDisplay:10.37,2013-06-28 01:05:00,
2013-06-27 21:11:00,82.2,81.6,30.25,ESE,112,0.0,0.0,98,0.00,CLR,,0.01,WeatherDisplay:10.37,2013-06-28 01:11:00,
2013-06-27 21:16:00,82.2,81.6,30.25,ESE,112,0.0,0.0,98,0.00,CLR,,0.01,WeatherDisplay:10.37,2013-06-28 01:16:00,
2013-06-27 21:21:00,82.0,81.4,30.27,ESE,112,0.0,0.0,98,0.00,CLR,,0.01,WeatherDisplay:10.37,2013-06-28 01:21:00,
2013-06-27 21:26:00,82.0,81.4,30.27,ESE,112,0.0,0.0,98,0.00,CLR,,0.01,WeatherDisplay:10.37,2013-06-28 01:26:00,
2013-06-27 21:31:00,81.9,81.3,30.30,ESE,112,0.0,0.0,98,0.00,CLR,,0.01,WeatherDisplay:10.37,2013-06-28 01:31:00,
2013-06-27 21:37:00,81.9,81.3,30.30,ESE,112,0.0,0.0,98,0.00,CLR,,0.01,WeatherDisplay:10.37,2013-06-28 01:37:00,
2013-06-27 21:42:00,81.5,80.9,30.30,ESE,112,0.0,0.0,98,0.00,CLR,,0.01,WeatherDisplay:10.37,2013-06-28 01:42:00,
2013-06-27 21:47:00,81.3,80.7,30.18,ESE,112,0.0,0.0,98,0.00,CLR,,0.01,WeatherDisplay:10.37,2013-06-28 01:47:00,
2013-06-27 21:52:00,81.3,80.7,30.18,ESE,112,0.0,0.0,98,0.00,CLR,,0.01,WeatherDisplay:10.37,2013-06-28 01:52:00,
2013-06-27 21:57:00,81.1,80.5,29.92,ESE,112,0.0,0.0,98,0.00,CLR,,0.01,WeatherDisplay:10.37,2013-06-28 01:57:00,
2013-06-27 22:02:00,81.0,80.4,29.92,ESE,112,0.0,0.0,98,0.00,CLR,,0.01,WeatherDisplay:10.37,2013-06-28 02:02:00,
2013-06-27 22:07:00,81.0,80.4,29.76,ESE,112,0.0,0.0,98,0.00,CLR,,0.01,WeatherDisplay:10.37,2013-06-28 02:07:00,
2013-06-27 22:13:00,81.0,80.4,29.76,ESE,112,0.0,0.0,98,0.00,CLR,,0.01,WeatherDisplay:10.37,2013-06-28 02:13:00,
2013-06-27 22:18:00,81.0,80.4,29.76,ESE,112,0.0,0.0,98,0.00,CLR,,0.01,WeatherDisplay:10.37,2013-06-28 02:18:00,
2013-06-27 22:23:00,81.0,80.4,29.66,ESE,112,0.0,0.0,98,0.00,CLR,,0.01,WeatherDisplay:10.37,2013-06-28 02:23:00,
2013-06-27 22:28:00,80.8,80.2,29.66,ESE,112,0.0,0.0,98,0.00,CLR,,0.01,WeatherDisplay:10.37,2013-06-28 02:28:00,
2013-06-27 22:34:00,80.6,80.0,29.59,ESE,112,0.0,0.0,98,0.00,CLR,,0.01,WeatherDisplay:10.37,2013-06-28 02:34:00,
2013-06-27 22:39:00,80.6,80.0,29.59,ESE,112,0.0,0.0,98,0.00,CLR,,0.01,WeatherDisplay:10.37,2013-06-28 02:39:00,
2013-06-27 22:44:00,80.6,80.0,29.53,ESE,112,0.0,0.0,98,0.00,CLR,,0.01,WeatherDisplay:10.37,2013-06-28 02:44:00,
2013-06-27 22:49:00,80.6,80.0,29.53,ESE,112,0.0,0.0,98,0.00,CLR,,0.01,WeatherDisplay:10.37,2013-06-28 02:49:00,
2013-06-27 22:54:00,80.6,80.0,29.53,ESE,112,0.0,0.0,98,0.00,CLR,,0.01,WeatherDisplay:10.37,2013-06-28 02:54:00,
2013-06-27 22:59:00,80.6,80.0,29.62,ESE,112,0.0,0.0,98,0.00,CLR,,0.01,WeatherDisplay:10.37,2013-06-28 02:59:00,
2013-06-27 23:05:00,80.4,79.8,29.62,ESE,112,0.0,0.0,98,0.00,CLR,,0.01,WeatherDisplay:10.37,2013-06-28 03:05:00,
2013-06-27 23:10:00,80.6,80.0,29.86,ESE,112,0.0,0.0,98,0.00,CLR,,0.01,WeatherDisplay:10.37,2013-06-28 03:10:00,
2013-06-27 23:15:00,80.6,80.0,29.86,ESE,112,0.0,0.0,98,0.00,CLR,,0.01,WeatherDisplay:10.37,2013-06-28 03:15:00,
2013-06-27 23:20:00,80.6,80.0,30.05,ESE,112,0.0,0.0,98,0.00,CLR,,0.01,WeatherDisplay:10.37,2013-06-28 03:20:00,
2013-06-27 23:25:00,80.4,79.8,30.05,ESE,112,0.0,0.0,98,0.00,CLR,,0.01,WeatherDisplay:10.37,2013-06-28 03:25:00,
2013-06-27 23:31:00,80.4,79.8,30.18,ESE,112,0.0,0.0,98,0.00,CLR,,0.01,WeatherDisplay:10.37,2013-06-28 03:31:00,
2013-06-27 23:36:00,80.4,79.8,30.18,ESE,112,0.0,0.0,98,0.00,CLR,,0.01,WeatherDisplay:10.37,2013-06-28 03:36:00,
2013-06-27 23:41:00,80.4,79.8,30.18,ESE,112,0.0,0.0,98,0.00,CLR,,0.01,WeatherDisplay:10.37,2013-06-28 03:41:00,
2013-06-27 23:46:00,80.1,79.5,30.27,ESE,112,0.0,0.0,98,0.00,CLR,,0.01,WeatherDisplay:10.37,2013-06-28 03:46:00,
2013-06-27 23:51:00,80.1,79.5,30.27,ESE,112,0.0,0.0,98,0.00,CLR,,0.01,WeatherDisplay:10.37,2013-06-28 03:51:00,
2013-06-27 23:57:00,79.9,79.3,30.34,ESE,112,0.0,0.0,98,0.00,CLR,,0.01,WeatherDisplay:10.37,2013-06-28 03:57:00,